createdAt,value
2022-11-01T00:00:20.009Z,18.51
2022-11-01T00:03:23.374Z,18.51
2022-11-01T00:06:26.204Z,18.49
2022-11-01T00:09:28.195Z,18.49
2022-11-01T00:12:33.336Z,18.50
2022-11-01T00:15:35.530Z,18.49
2022-11-01T00:18:37.562Z,18.48
2022-11-01T00:21:39.701Z,18.48
2022-11-01T00:24:41.743Z,18.48
2022-11-01T00:27:43.727Z,18.49
2022-11-01T00:30:45.773Z,18.49
2022-11-01T00:33:48.134Z,18.48
2022-11-01T00:36:50.196Z,18.48
2022-11-01T00:39:52.275Z,18.47
2022-11-01T00:42:54.405Z,18.47
2022-11-01T00:45:56.491Z,18.47
2022-11-01T00:48:58.540Z,18.47
2022-11-01T00:52:00.709Z,18.46
2022-11-01T00:55:02.730Z,18.44
2022-11-01T00:58:05.148Z,18.46
2022-11-01T01:01:07.641Z,18.47
2022-11-01T01:04:09.687Z,18.46
2022-11-01T01:07:12.216Z,18.47
2022-11-01T01:10:14.681Z,18.44
2022-11-01T01:13:17.273Z,18.44
2022-11-01T01:16:19.423Z,18.44
2022-11-01T01:19:21.481Z,18.44
2022-11-01T01:22:23.535Z,18.46
2022-11-01T01:25:25.812Z,18.43
2022-11-01T01:28:27.831Z,18.42
2022-11-01T01:31:29.965Z,18.42
2022-11-01T01:34:33.462Z,18.42
2022-11-01T01:37:35.629Z,18.42
2022-11-01T01:40:37.656Z,18.40
2022-11-01T01:43:44.182Z,18.42
2022-11-01T01:46:46.186Z,18.42
2022-11-01T01:53:04.356Z,18.42
2022-11-01T01:56:34.154Z,18.41
2022-11-01T01:59:37.765Z,18.41
2022-11-01T02:02:41.544Z,18.41
2022-11-01T02:06:11.048Z,18.41
2022-11-01T02:09:14.769Z,18.40
2022-11-01T02:12:17.406Z,18.40
2022-11-01T02:15:24.170Z,18.41
2022-11-01T02:18:36.286Z,18.38
2022-11-01T02:21:54.770Z,18.39
2022-11-01T02:25:23.790Z,18.40
2022-11-01T02:29:09.850Z,18.38
2022-11-01T02:32:20.896Z,18.38
2022-11-01T02:35:31.893Z,18.38
2022-11-01T02:38:58.763Z,18.38
2022-11-01T02:42:15.158Z,18.37
2022-11-01T02:45:37.280Z,18.38
2022-11-01T02:48:39.449Z,18.37
2022-11-01T02:51:43.709Z,18.37
2022-11-01T02:54:51.510Z,18.37
2022-11-01T02:57:54.190Z,18.37
2022-11-01T03:00:57.016Z,18.36
2022-11-01T03:03:59.826Z,18.36
2022-11-01T03:07:05.399Z,18.36
2022-11-01T03:10:07.987Z,18.37
2022-11-01T03:13:49.071Z,18.35
2022-11-01T03:17:14.417Z,18.36
2022-11-01T03:20:28.351Z,18.35
2022-11-01T03:23:38.408Z,18.34
2022-11-01T03:26:42.159Z,18.35
2022-11-01T03:29:56.347Z,18.36
2022-11-01T03:32:59.250Z,18.34
2022-11-01T03:36:13.413Z,18.36
2022-11-01T03:39:22.447Z,18.35
2022-11-01T03:42:25.004Z,18.35
2022-11-01T03:45:28.132Z,18.33
2022-11-01T03:48:30.154Z,18.35
2022-11-01T03:51:32.583Z,18.33
2022-11-01T03:54:34.593Z,18.33
2022-11-01T03:57:36.855Z,18.35
2022-11-01T04:00:44.855Z,18.34
2022-11-01T04:03:47.052Z,18.34
2022-11-01T04:06:50.235Z,18.33
2022-11-01T04:09:52.464Z,18.34
2022-11-01T04:12:54.915Z,18.33
2022-11-01T04:16:16.759Z,18.34
2022-11-01T04:19:37.652Z,18.34
2022-11-01T04:22:39.772Z,18.32
2022-11-01T04:25:41.900Z,18.33
2022-11-01T04:28:56.578Z,18.32
2022-11-01T04:31:58.599Z,18.32
2022-11-01T04:35:00.625Z,18.32
2022-11-01T04:38:02.884Z,18.30
2022-11-01T04:41:05.283Z,18.33
2022-11-01T04:44:07.808Z,18.32
2022-11-01T04:47:09.824Z,18.30
2022-11-01T04:50:11.821Z,18.32
2022-11-01T04:53:13.962Z,18.30
2022-11-01T04:56:15.989Z,18.29
2022-11-01T04:59:18.046Z,18.30
2022-11-01T05:02:21.943Z,18.29
2022-11-01T05:05:23.935Z,18.30
2022-11-01T05:08:26.083Z,18.30
2022-11-01T05:11:28.133Z,18.29
2022-11-01T05:14:30.318Z,18.30
2022-11-01T05:17:32.373Z,18.28
2022-11-01T05:20:34.402Z,18.29
2022-11-01T05:23:36.386Z,18.29
2022-11-01T05:26:38.531Z,18.27
2022-11-01T05:29:40.636Z,18.28
2022-11-01T05:32:42.697Z,18.28
2022-11-01T05:35:44.678Z,18.28
2022-11-01T05:38:46.778Z,18.26
2022-11-01T05:41:48.757Z,18.28
2022-11-01T05:44:50.857Z,18.26
2022-11-01T05:47:52.912Z,18.27
2022-11-01T05:50:54.928Z,18.28
2022-11-01T05:53:56.960Z,18.28
2022-11-01T05:56:58.975Z,18.27
2022-11-01T06:00:01.363Z,18.26
2022-11-01T06:03:04.373Z,18.28
2022-11-01T06:06:06.970Z,18.27
2022-11-01T06:09:09.568Z,18.27
2022-11-01T06:12:11.569Z,18.27
2022-11-01T06:15:13.705Z,18.26
2022-11-01T06:18:15.742Z,18.26
2022-11-01T06:21:17.847Z,18.26
2022-11-01T06:24:19.862Z,18.26
2022-11-01T06:27:21.880Z,18.26
2022-11-01T06:30:23.931Z,18.25
2022-11-01T06:33:25.932Z,18.25
2022-11-01T06:36:28.101Z,18.25
2022-11-01T06:39:30.100Z,18.25
2022-11-01T06:42:32.108Z,18.25
2022-11-01T06:45:34.534Z,18.24
2022-11-01T06:48:36.511Z,18.23
2022-11-01T06:51:38.535Z,18.24
2022-11-01T06:54:40.522Z,18.24
2022-11-01T06:57:43.258Z,18.24
2022-11-01T07:00:45.529Z,18.25
2022-11-01T07:03:50.900Z,18.23
2022-11-01T07:06:53.458Z,18.24
2022-11-01T07:09:55.550Z,18.24
2022-11-01T07:13:07.672Z,18.24
2022-11-01T07:16:09.692Z,18.24
2022-11-01T07:19:12.036Z,18.23
2022-11-01T07:22:14.730Z,18.24
2022-11-01T07:25:16.755Z,18.23
2022-11-01T07:28:19.300Z,18.24
2022-11-01T07:31:21.355Z,18.24
2022-11-01T07:34:23.338Z,18.23
2022-11-01T07:37:29.706Z,18.24
2022-11-01T07:40:31.905Z,18.24
2022-11-01T07:43:35.692Z,18.24
2022-11-01T07:46:37.710Z,18.23
2022-11-01T07:49:39.717Z,18.23
2022-11-01T07:52:41.742Z,18.24
2022-11-01T07:55:44.415Z,18.23
2022-11-01T07:58:46.491Z,18.24
2022-11-01T08:01:48.573Z,18.24
2022-11-01T08:04:50.720Z,18.24
2022-11-01T08:07:52.729Z,18.25
2022-11-01T08:10:54.857Z,18.25
2022-11-01T08:14:02.758Z,18.24
2022-11-01T08:17:08.755Z,18.25
2022-11-01T08:20:11.464Z,18.25
2022-11-01T08:23:13.797Z,18.26
2022-11-01T08:26:16.106Z,18.26
2022-11-01T08:29:18.208Z,18.28
2022-11-01T08:32:21.480Z,18.33
2022-11-01T08:35:23.457Z,18.34
2022-11-01T08:38:25.599Z,18.35
2022-11-01T08:41:30.894Z,18.36
2022-11-01T08:44:34.552Z,18.38
2022-11-01T08:47:36.575Z,18.39
2022-11-01T08:50:38.976Z,18.40
2022-11-01T08:53:41.003Z,18.38
2022-11-01T08:56:43.084Z,18.38
2022-11-01T08:59:45.091Z,18.39
2022-11-01T09:02:47.088Z,18.39
2022-11-01T09:05:49.355Z,18.42
2022-11-01T09:08:53.559Z,18.44
2022-11-01T09:11:56.325Z,18.54
2022-11-01T09:14:58.384Z,18.57
2022-11-01T09:18:05.948Z,18.58
2022-11-01T09:21:07.993Z,18.61
2022-11-01T09:24:12.211Z,18.59
2022-11-01T09:27:14.485Z,18.61
2022-11-01T09:30:16.669Z,18.62
2022-11-01T09:33:21.329Z,18.62
2022-11-01T09:36:24.503Z,18.63
2022-11-01T09:39:27.404Z,18.64
2022-11-01T09:42:36.981Z,18.64
2022-11-01T09:45:39.076Z,18.63
2022-11-01T09:48:44.050Z,18.58
2022-11-01T09:51:46.151Z,18.61
2022-11-01T09:54:48.526Z,18.57
2022-11-01T09:58:04.679Z,18.56
2022-11-01T10:01:15.982Z,18.67
2022-11-01T10:04:41.053Z,18.64
2022-11-01T10:08:02.224Z,18.64
2022-11-01T10:11:22.402Z,18.66
2022-11-01T10:14:47.350Z,18.66
2022-11-01T10:17:53.016Z,18.64
2022-11-01T10:21:19.574Z,18.64
2022-11-01T10:24:57.573Z,18.63
2022-11-01T10:28:11.387Z,18.63
2022-11-01T10:31:18.377Z,18.62
2022-11-01T10:34:33.369Z,18.59
2022-11-01T10:38:04.253Z,18.57
2022-11-01T10:41:27.212Z,18.56
2022-11-01T10:44:38.337Z,18.55
2022-11-01T10:47:43.330Z,18.57
2022-11-01T10:50:45.656Z,18.57
2022-11-01T10:53:52.143Z,18.57
2022-11-01T10:56:59.382Z,18.61
2022-11-01T11:00:06.186Z,18.65
2022-11-01T11:03:20.924Z,18.63
2022-11-01T11:06:23.718Z,18.63
2022-11-01T11:09:31.096Z,18.65
2022-11-01T11:12:34.869Z,18.65
2022-11-01T11:16:01.447Z,18.66
2022-11-01T11:19:16.185Z,18.68
2022-11-01T11:22:20.671Z,18.71
2022-11-01T11:25:32.864Z,18.74
2022-11-01T11:28:42.501Z,18.78
2022-11-01T11:31:44.589Z,18.79
2022-11-01T11:34:54.788Z,18.79
2022-11-01T11:38:03.081Z,18.77
2022-11-01T11:41:08.358Z,18.74
2022-11-01T11:44:50.556Z,18.71
2022-11-01T11:47:57.837Z,18.71
2022-11-01T11:51:05.170Z,18.74
2022-11-01T11:54:29.105Z,18.72
2022-11-01T11:57:31.297Z,18.71
2022-11-01T12:00:37.193Z,18.70
2022-11-01T12:03:55.146Z,18.70
2022-11-01T12:06:58.147Z,18.70
2022-11-01T12:10:02.487Z,18.70
2022-11-01T12:13:25.407Z,18.68
2022-11-01T12:19:31.830Z,18.70
2022-11-01T12:22:35.835Z,18.72
2022-11-01T12:25:39.973Z,18.73
2022-11-01T12:28:51.759Z,18.73
2022-11-01T12:31:55.199Z,18.73
2022-11-01T12:35:01.795Z,18.73
2022-11-01T12:38:38.515Z,18.74
2022-11-01T12:41:46.308Z,18.73
2022-11-01T12:44:51.638Z,18.72
2022-11-01T12:48:00.967Z,18.72
2022-11-01T12:51:26.724Z,18.77
2022-11-01T12:54:34.831Z,18.89
2022-11-01T12:57:36.970Z,19.01
2022-11-01T13:00:57.476Z,19.01
2022-11-01T13:04:31.188Z,19.06
2022-11-01T13:07:33.752Z,19.18
2022-11-01T13:10:43.654Z,19.25
2022-11-01T13:14:06.439Z,19.31
2022-11-01T13:17:17.421Z,19.37
2022-11-01T13:20:28.346Z,19.44
2022-11-01T13:23:39.650Z,19.52
2022-11-01T13:26:55.166Z,19.41
2022-11-01T13:30:03.950Z,19.44
2022-11-01T13:33:20.142Z,19.52
2022-11-01T13:36:35.297Z,19.60
2022-11-01T13:39:54.231Z,19.65
2022-11-01T13:43:09.601Z,19.68
2022-11-01T13:46:40.658Z,19.70
2022-11-01T13:50:04.017Z,19.74
2022-11-01T13:53:46.142Z,19.82
2022-11-01T13:56:58.496Z,19.86
2022-11-01T14:00:06.905Z,19.88
2022-11-01T14:03:36.090Z,19.92
2022-11-01T14:06:42.637Z,19.96
2022-11-01T14:09:54.505Z,19.99
2022-11-01T14:13:09.663Z,20.00
2022-11-01T14:16:14.403Z,20.02
2022-11-01T14:19:21.243Z,20.05
2022-11-01T14:22:27.150Z,20.05
2022-11-01T14:25:31.587Z,20.03
2022-11-01T14:28:33.606Z,19.99
2022-11-01T14:31:36.879Z,19.88
2022-11-01T14:34:41.199Z,19.80
2022-11-01T14:37:49.012Z,19.75
2022-11-01T14:40:56.642Z,19.70
2022-11-01T14:44:05.596Z,19.67
2022-11-01T14:47:34.090Z,19.63
2022-11-01T14:51:05.466Z,19.62
2022-11-01T14:54:22.014Z,19.59
2022-11-01T14:57:30.150Z,19.59
2022-11-01T15:00:32.747Z,19.55
2022-11-01T15:03:34.803Z,19.54
2022-11-01T15:06:43.190Z,19.53
2022-11-01T15:09:59.548Z,19.50
2022-11-01T15:13:02.445Z,19.47
2022-11-01T15:16:08.424Z,19.47
2022-11-01T15:19:18.729Z,19.45
2022-11-01T15:22:25.056Z,19.44
2022-11-01T15:25:27.291Z,19.41
2022-11-01T15:28:39.952Z,19.40
2022-11-01T15:31:51.384Z,19.37
2022-11-01T15:34:55.179Z,19.36
2022-11-01T15:37:58.050Z,19.36
2022-11-01T15:41:18.428Z,19.35
2022-11-01T15:44:25.779Z,19.31
2022-11-01T15:47:29.378Z,19.31
2022-11-01T15:50:35.725Z,19.29
2022-11-01T15:53:40.779Z,19.28
2022-11-01T15:56:50.322Z,19.27
2022-11-01T16:00:18.648Z,19.28
2022-11-01T16:03:27.645Z,19.27
2022-11-01T16:06:58.235Z,19.27
2022-11-01T16:10:03.368Z,19.24
2022-11-01T16:13:06.213Z,19.24
2022-11-01T16:16:10.899Z,19.22
2022-11-01T16:19:35.900Z,19.22
2022-11-01T16:22:47.039Z,19.22
2022-11-01T16:26:07.398Z,19.22
2022-11-01T16:29:15.059Z,19.20
2022-11-01T16:32:37.376Z,19.20
2022-11-01T16:35:39.682Z,19.18
2022-11-01T16:38:43.834Z,19.17
2022-11-01T16:41:45.846Z,19.17
2022-11-01T16:44:53.935Z,19.17
2022-11-01T16:47:59.491Z,19.17
2022-11-01T16:51:03.253Z,19.16
2022-11-01T16:54:05.262Z,19.14
2022-11-01T16:57:22.153Z,19.13
2022-11-01T17:00:24.118Z,19.12
2022-11-01T17:03:26.494Z,19.13
2022-11-01T17:06:28.620Z,19.12
2022-11-01T17:09:32.525Z,19.11
2022-11-01T17:12:34.674Z,19.10
2022-11-01T17:15:42.505Z,19.09
2022-11-01T17:18:45.238Z,19.09
2022-11-01T17:21:49.137Z,19.07
2022-11-01T17:24:51.195Z,19.07
2022-11-01T17:27:53.323Z,19.07
2022-11-01T17:30:55.679Z,19.06
2022-11-01T17:33:57.856Z,19.05
2022-11-01T17:36:59.869Z,19.03
2022-11-01T17:40:02.685Z,19.03
2022-11-01T17:43:04.773Z,19.03
2022-11-01T17:46:17.150Z,19.01
2022-11-01T17:49:23.592Z,18.99
2022-11-01T17:52:25.754Z,18.99
2022-11-01T17:55:27.905Z,19.00
2022-11-01T17:58:29.944Z,18.98
2022-11-01T18:01:32.378Z,18.97
2022-11-01T18:04:36.519Z,18.97
2022-11-01T18:07:43.612Z,18.96
2022-11-01T18:11:12.894Z,18.95
2022-11-01T18:14:17.197Z,18.94
2022-11-01T18:17:31.629Z,18.94
2022-11-01T18:20:52.095Z,18.93
2022-11-01T18:23:55.725Z,18.93
2022-11-01T18:26:58.653Z,18.92
2022-11-01T18:30:07.438Z,18.91
2022-11-01T18:33:27.718Z,18.92
2022-11-01T18:36:58.171Z,18.89
2022-11-01T18:40:25.484Z,18.89
2022-11-01T18:43:38.190Z,18.88
2022-11-01T18:46:46.803Z,18.87
2022-11-01T18:49:53.200Z,18.87
2022-11-01T18:53:21.530Z,18.86
2022-11-01T18:56:25.707Z,18.86
2022-11-01T18:59:32.281Z,18.84
2022-11-01T19:02:35.783Z,18.83
2022-11-01T19:05:38.321Z,18.84
2022-11-01T19:08:40.357Z,18.84
2022-11-01T19:11:42.399Z,18.83
2022-11-01T19:14:48.562Z,18.83
2022-11-01T19:17:57.826Z,18.82
2022-11-01T19:21:00.790Z,18.81
2022-11-01T19:24:11.061Z,18.79
2022-11-01T19:27:21.101Z,18.79
2022-11-01T19:30:28.894Z,18.78
2022-11-01T19:33:37.389Z,18.78
2022-11-01T19:36:41.552Z,18.77
2022-11-01T19:39:43.546Z,18.77
2022-11-01T19:42:45.628Z,18.77
2022-11-01T19:45:51.328Z,18.76
2022-11-01T19:48:53.623Z,18.73
2022-11-01T19:52:34.024Z,18.74
2022-11-01T19:55:59.142Z,18.73
2022-11-01T19:59:03.684Z,18.71
2022-11-01T20:02:16.154Z,18.71
2022-11-01T20:05:33.038Z,18.71
2022-11-01T20:08:35.435Z,18.72
2022-11-01T20:11:37.936Z,18.71
2022-11-01T20:14:40.320Z,18.71
2022-11-01T20:17:42.364Z,18.69
2022-11-01T20:20:45.697Z,18.69
2022-11-01T20:23:47.751Z,18.68
2022-11-01T20:26:50.706Z,18.68
2022-11-01T20:29:52.799Z,18.67
2022-11-01T20:32:54.878Z,18.67
2022-11-01T20:35:57.590Z,18.67
2022-11-01T20:38:59.668Z,18.66
2022-11-01T20:42:02.064Z,18.65
2022-11-01T20:45:05.259Z,18.64
2022-11-01T20:48:07.464Z,18.64
2022-11-01T20:51:09.511Z,18.65
2022-11-01T20:54:17.511Z,18.63
2022-11-01T20:57:27.980Z,18.63
2022-11-01T21:00:31.737Z,18.62
2022-11-01T21:03:34.446Z,18.61
2022-11-01T21:06:37.359Z,18.61
2022-11-01T21:09:43.980Z,18.59
2022-11-01T21:12:48.281Z,18.58
2022-11-01T21:15:51.978Z,18.58
2022-11-01T21:19:00.163Z,18.59
2022-11-01T21:22:02.232Z,18.58
2022-11-01T21:25:04.948Z,18.57
2022-11-01T21:28:29.715Z,18.56
2022-11-01T21:31:34.542Z,18.56
2022-11-01T21:34:36.614Z,18.56
2022-11-01T21:37:38.594Z,18.55
2022-11-01T21:40:41.907Z,18.55
2022-11-01T21:43:44.664Z,18.55
2022-11-01T21:46:54.597Z,18.54
2022-11-01T21:49:57.089Z,18.53
2022-11-01T21:52:59.156Z,18.53
2022-11-01T21:56:01.181Z,18.53
2022-11-01T21:59:03.212Z,18.52
2022-11-01T22:02:07.010Z,18.51
2022-11-01T22:05:09.224Z,18.50
2022-11-01T22:08:11.254Z,18.50
2022-11-01T22:11:13.504Z,18.50
2022-11-01T22:14:15.628Z,18.50
2022-11-01T22:17:17.722Z,18.50
2022-11-01T22:20:19.865Z,18.49
2022-11-01T22:23:28.529Z,18.49
2022-11-01T22:26:38.230Z,18.48
2022-11-01T22:29:41.393Z,18.47
2022-11-01T22:32:43.487Z,18.46
2022-11-01T22:35:45.567Z,18.44
2022-11-01T22:38:47.816Z,18.44
2022-11-01T22:41:50.079Z,18.43
2022-11-01T22:44:52.120Z,18.44
2022-11-01T22:47:54.124Z,18.43
2022-11-01T22:50:56.412Z,18.41
2022-11-01T22:53:59.503Z,18.42
2022-11-01T22:57:14.219Z,18.41
2022-11-01T23:00:26.188Z,18.40
2022-11-01T23:03:38.376Z,18.40
2022-11-01T23:06:42.655Z,18.40
2022-11-01T23:09:45.169Z,18.38
2022-11-01T23:13:06.142Z,18.39
2022-11-01T23:16:24.713Z,18.38
2022-11-01T23:19:27.092Z,18.38
2022-11-01T23:22:35.190Z,18.37
2022-11-01T23:25:37.171Z,18.35
2022-11-01T23:28:43.228Z,18.35
2022-11-01T23:31:45.241Z,18.35
2022-11-01T23:34:48.197Z,18.35
2022-11-01T23:37:51.101Z,18.35
2022-11-01T23:40:53.823Z,18.35
2022-11-01T23:43:58.700Z,18.35
2022-11-01T23:47:15.269Z,18.34
2022-11-01T23:50:22.669Z,18.33
2022-11-01T23:53:38.209Z,18.33
2022-11-01T23:56:42.994Z,18.30
2022-11-01T23:59:45.495Z,18.32
